ASP weather

Alice Springs Airport
Alice Springs, Northern Territory, Australia

Public forecast

Using degrees Celsius for public forecast. Weather courtesy of forecast.io.

METAR (pilot weather report)

Retrieved 2017/11/25 01:30 UTC (0 seconds ago):

YBAS 250130Z 01013KT CAVOK 31/09 Q1013 SCT140 BKN260

TAF (pilot weather forecast)

Forecast is more than 6 hours old.

Retrieved 2017/11/24 18:00 UTC (7 hours ago):

TAF YBAS 241741Z 2418/2518 10007KT CAVOK FM242300 03012KT CAVOK FM250800 33008KT 9999 SCT040 TEMPO 2505/2518 VRB25G45KT 1000 TSRA BKN015 SCT040CB